Time;durP1;ratioP1;P1;durP2;ratioP2;P2;SDS_P1;SDS_P2;PMS_P1;PMS_P2;Temp;Humidity;BMP_temperature;BMP_pressure;BME280_temperature;BME280_humidity;BME280_pressure;Samples;Min_cycle;Max_cycle;Signal;HPM_P1;HPM_P2
2023/03/27 00:00:15;;;;;;;11.57;2.03;;;4.00;99.90;;;;;;5051458;28;20044;-72
2023/03/27 00:02:41;;;;;;;8.10;1.52;;;4.00;99.90;;;;;;5034583;28;20049;-72
2023/03/27 00:05:07;;;;;;;11.70;1.70;;;4.00;99.90;;;;;;5051351;28;20037;-72
2023/03/27 00:07:40;;;;;;;10.13;1.63;;;4.00;99.90;;;;;;5054062;28;20413;-72
2023/03/27 00:10:06;;;;;;;10.32;1.67;;;4.00;99.90;;;;;;5054780;28;20124;-72
2023/03/27 00:12:32;;;;;;;10.77;1.77;;;3.90;99.90;;;;;;5054668;28;20036;-72
2023/03/27 00:14:59;;;;;;;9.25;1.58;;;3.90;99.90;;;;;;5054819;28;20128;-71
2023/03/27 00:17:25;;;;;;;7.93;1.45;;;3.90;99.90;;;;;;5054853;28;20049;-72
2023/03/27 00:19:51;;;;;;;8.20;1.65;;;3.90;99.90;;;;;;5054787;28;20508;-72
2023/03/27 00:22:16;;;;;;;11.07;2.30;;;3.90;99.90;;;;;;5054483;28;20045;-72
2023/03/27 00:24:42;;;;;;;8.27;1.40;;;3.90;99.90;;;;;;5054658;28;20045;-72
2023/03/27 00:27:07;;;;;;;8.15;1.50;;;3.90;99.90;;;;;;5071034;28;20494;-72
2023/03/27 00:29:33;;;;;;;11.40;1.95;;;3.80;99.90;;;;;;5054383;28;20037;-72
2023/03/27 00:31:59;;;;;;;9.40;1.60;;;3.80;99.90;;;;;;5054273;28;20033;-71
2023/03/27 00:34:25;;;;;;;8.18;1.90;;;3.80;99.90;;;;;;5054212;28;20120;-71
2023/03/27 00:36:52;;;;;;;9.38;1.88;;;3.80;99.90;;;;;;5054408;28;20131;-72
2023/03/27 00:39:18;;;;;;;13.95;1.90;;;3.70;99.90;;;;;;5054139;28;20502;-72
2023/03/27 00:41:44;;;;;;;9.55;1.55;;;3.70;99.90;;;;;;5054096;28;20166;-72
2023/03/27 00:44:36;;;;;;;8.23;1.40;;;3.70;99.90;;;;;;5054083;28;20391;-72
2023/03/27 00:47:03;;;;;;;7.40;1.40;;;3.70;99.90;;;;;;5037108;28;20148;-72
2023/03/27 00:49:33;;;;;;;8.68;1.38;;;3.60;99.90;;;;;;5054213;28;20041;-72
2023/03/27 00:52:02;;;;;;;9.60;1.98;;;3.50;99.90;;;;;;5053908;28;20041;-72
2023/03/27 00:54:32;;;;;;;7.70;1.50;;;3.50;99.90;;;;;;5054111;28;20041;-71
2023/03/27 00:57:05;;;;;;;6.85;1.55;;;3.50;99.90;;;;;;5054008;28;20053;-71
2023/03/27 00:59:38;;;;;;;8.65;1.77;;;3.50;99.90;;;;;;5053872;28;20561;-72
2023/03/27 01:02:04;;;;;;;7.43;1.83;;;3.50;99.90;;;;;;5053850;28;20128;-72
2023/03/27 01:04:31;;;;;;;9.13;1.60;;;3.40;99.90;;;;;;5053978;28;20048;-71
2023/03/27 01:06:59;;;;;;;7.50;1.23;;;3.40;99.90;;;;;;5053986;28;20037;-72
2023/03/27 01:09:26;;;;;;;5.43;0.80;;;3.40;99.90;;;;;;5053641;28;20041;-72
2023/03/27 01:12:13;;;;;;;8.85;1.65;;;3.40;99.90;;;;;;5053540;28;20454;-72
2023/03/27 01:14:56;;;;;;;10.73;1.40;;;3.50;99.90;;;;;;5053750;28;20570;-71
2023/03/27 01:17:32;;;;;;;12.30;1.38;;;3.40;99.90;;;;;;5053502;28;20055;-72
2023/03/27 01:20:19;;;;;;;5.88;1.30;;;3.40;99.90;;;;;;5053455;28;20099;-72
2023/03/27 01:23:30;;;;;;;9.45;1.30;;;3.40;99.90;;;;;;5053357;28;20036;-72
2023/03/27 01:26:17;;;;;;;8.35;1.38;;;3.30;99.90;;;;;;5044295;28;20053;-72
2023/03/27 01:28:49;;;;;;;8.02;1.60;;;3.30;99.90;;;;;;5053228;28;20082;-72
2023/03/27 01:31:49;;;;;;;10.68;1.70;;;3.30;99.90;;;;;;5053228;28;20037;-72
2023/03/27 01:35:00;;;;;;;5.95;1.33;;;3.30;99.90;;;;;;5053099;28;20068;-71
2023/03/27 01:37:54;;;;;;;13.15;1.65;;;3.30;99.90;;;;;;5053312;28;20132;-72
2023/03/27 01:40:40;;;;;;;7.82;1.33;;;3.30;99.90;;;;;;5053095;28;20041;-72
2023/03/27 01:43:16;;;;;;;10.18;1.42;;;3.30;99.90;;;;;;5052985;28;20417;-71
2023/03/27 01:45:48;;;;;;;13.32;1.38;;;3.30;99.90;;;;;;5052795;28;20045;-71
2023/03/27 01:48:30;;;;;;;6.18;1.20;;;3.30;99.90;;;;;;5052897;28;20112;-71
2023/03/27 01:51:00;;;;;;;6.57;1.02;;;3.30;99.90;;;;;;5053114;28;20053;-72
2023/03/27 01:53:35;;;;;;;10.00;1.30;;;3.30;99.90;;;;;;5053311;28;20473;-71
2023/03/27 01:56:06;;;;;;;8.88;1.65;;;3.40;99.90;;;;;;5052800;28;20056;-72
2023/03/27 01:58:39;;;;;;;9.73;2.03;;;3.40;99.90;;;;;;5052956;28;20056;-72
2023/03/27 02:01:08;;;;;;;9.10;1.33;;;3.40;99.90;;;;;;5052726;28;20044;-72
2023/03/27 02:03:42;;;;;;;10.73;1.40;;;3.40;99.90;;;;;;5052573;28;20041;-72
2023/03/27 02:06:22;;;;;;;8.40;1.52;;;3.40;99.90;;;;;;5052427;28;20055;-71
2023/03/27 02:08:56;;;;;;;12.45;1.83;;;3.40;99.90;;;;;;5052551;28;20516;-72
2023/03/27 02:11:25;;;;;;;8.15;1.63;;;3.40;99.90;;;;;;5052458;28;20044;-72
2023/03/27 02:13:58;;;;;;;10.05;1.60;;;3.40;99.90;;;;;;5052382;28;20501;-72
2023/03/27 02:16:32;;;;;;;8.57;1.38;;;3.40;99.90;;;;;;5052312;28;20524;-71
2023/03/27 02:19:02;;;;;;;10.60;1.42;;;3.40;99.90;;;;;;5052640;28;20075;-71
2023/03/27 02:21:30;;;;;;;11.20;1.50;;;3.30;99.90;;;;;;5052382;28;20055;-72
2023/03/27 02:23:56;;;;;;;8.60;1.40;;;3.30;99.90;;;;;;5052501;28;20058;-72
2023/03/27 02:26:22;;;;;;;8.75;1.60;;;3.20;99.90;;;;;;5052028;28;20417;-72
2023/03/27 02:28:56;;;;;;;11.48;1.50;;;3.20;99.90;;;;;;5051686;28;20033;-72
2023/03/27 02:31:30;;;;;;;8.80;1.60;;;3.20;99.90;;;;;;5052426;28;20390;-72
2023/03/27 02:34:27;;;;;;;9.65;1.33;;;3.20;99.90;;;;;;5052118;28;20090;-72
2023/03/27 02:37:02;;;;;;;8.68;1.77;;;3.10;99.90;;;;;;5052068;28;20095;-72
2023/03/27 02:39:40;;;;;;;7.18;1.48;;;3.10;99.90;;;;;;5052262;28;20405;-72
2023/03/27 02:42:26;;;;;;;9.93;1.48;;;3.10;99.90;;;;;;5052246;28;20036;-71
2023/03/27 02:45:12;;;;;;;9.13;1.65;;;3.10;99.90;;;;;;5052124;28;20036;-71
2023/03/27 02:47:52;;;;;;;8.98;1.67;;;3.10;99.90;;;;;;5051859;28;20124;-72
2023/03/27 02:50:23;;;;;;;8.35;1.85;;;3.20;99.90;;;;;;5052209;28;20090;-72
2023/03/27 02:52:54;;;;;;;12.45;1.67;;;3.20;99.90;;;;;;5051928;28;20051;-72
2023/03/27 02:55:24;;;;;;;9.07;1.38;;;3.30;99.90;;;;;;5051619;28;20041;-71
2023/03/27 02:57:55;;;;;;;7.68;0.98;;;3.30;99.90;;;;;;5051786;28;20524;-72
2023/03/27 03:00:24;;;;;;;9.30;1.80;;;3.30;99.90;;;;;;5051840;28;20535;-72
2023/03/27 03:03:16;;;;;;;10.23;1.38;;;3.30;99.90;;;;;;5051690;28;20512;-72
2023/03/27 03:05:42;;;;;;;9.10;1.50;;;3.30;99.90;;;;;;5051616;28;20129;-71
2023/03/27 03:08:09;;;;;;;8.55;1.40;;;3.30;99.90;;;;;;5051715;28;20041;-72
2023/03/27 03:10:41;;;;;;;10.25;1.58;;;3.20;99.90;;;;;;5051655;28;20083;-72
2023/03/27 03:13:07;;;;;;;8.35;1.42;;;3.30;99.90;;;;;;5051653;28;20409;-72
2023/03/27 03:15:33;;;;;;;11.45;2.08;;;3.20;99.90;;;;;;5051538;28;20037;-71
2023/03/27 03:17:58;;;;;;;11.07;1.52;;;3.20;99.90;;;;;;5051867;28;20045;-71
2023/03/27 03:20:28;;;;;;;9.55;1.52;;;3.30;99.90;;;;;;5034996;28;20493;-71
2023/03/27 03:22:56;;;;;;;7.85;1.25;;;3.30;99.90;;;;;;5051816;28;20041;-72
2023/03/27 03:25:22;;;;;;;9.88;1.77;;;3.30;99.90;;;;;;5051447;28;20490;-71
2023/03/27 03:27:48;;;;;;;8.88;1.25;;;3.20;99.90;;;;;;5051422;28;20052;-72
2023/03/27 03:30:13;;;;;;;12.15;1.80;;;3.20;99.90;;;;;;5051475;28;20037;-72
2023/03/27 03:32:39;;;;;;;8.77;1.55;;;3.20;99.90;;;;;;5051680;28;20111;-71
2023/03/27 03:35:07;;;;;;;9.00;1.33;;;3.10;99.90;;;;;;5051411;28;20041;-71
2023/03/27 03:37:37;;;;;;;7.82;1.15;;;3.10;99.90;;;;;;5051397;28;20490;-72
2023/03/27 03:40:10;;;;;;;6.80;1.20;;;3.10;99.90;;;;;;5051716;28;20040;-72
2023/03/27 03:42:42;;;;;;;7.30;1.23;;;3.00;99.90;;;;;;5054772;28;20179;-72
2023/03/27 03:45:08;;;;;;;7.68;1.50;;;3.00;99.90;;;;;;5055207;28;20049;-71
2023/03/27 03:47:34;;;;;;;9.57;1.48;;;2.90;99.90;;;;;;5055105;28;20036;-71
2023/03/27 03:49:59;;;;;;;10.40;1.60;;;2.90;99.90;;;;;;5055433;28;20040;-72
2023/03/27 03:52:26;;;;;;;7.95;1.10;;;2.90;99.90;;;;;;5055196;28;20124;-72
2023/03/27 03:54:51;;;;;;;8.82;1.27;;;2.80;99.90;;;;;;5055050;28;20512;-71
2023/03/27 03:57:18;;;;;;;9.65;1.60;;;2.80;99.90;;;;;;5055058;28;20041;-71
2023/03/27 03:59:43;;;;;;;12.77;1.50;;;2.80;99.90;;;;;;5054970;28;20098;-71
2023/03/27 04:02:10;;;;;;;9.38;1.45;;;2.80;99.90;;;;;;5055157;28;20049;-71
2023/03/27 04:04:36;;;;;;;9.27;1.50;;;2.80;99.90;;;;;;5054747;28;20501;-71
2023/03/27 04:07:05;;;;;;;12.35;1.58;;;2.80;99.90;;;;;;5054737;28;20045;-71
2023/03/27 04:09:31;;;;;;;9.10;1.50;;;2.70;99.90;;;;;;5054752;28;20523;-71
2023/03/27 04:11:57;;;;;;;10.38;1.45;;;2.70;99.90;;;;;;5054745;28;20040;-71
2023/03/27 04:14:22;;;;;;;9.10;1.50;;;2.70;99.90;;;;;;5054584;28;20118;-71
2023/03/27 04:16:48;;;;;;;7.43;1.48;;;2.70;99.90;;;;;;5054619;28;20036;-71
2023/03/27 04:19:17;;;;;;;9.57;1.70;;;2.60;99.90;;;;;;5054840;28;20183;-72
2023/03/27 04:21:42;;;;;;;8.02;1.45;;;2.60;99.90;;;;;;5054497;28;20052;-72
2023/03/27 04:24:08;;;;;;;6.93;1.60;;;2.60;99.90;;;;;;5054481;28;20040;-72
2023/03/27 04:26:34;;;;;;;7.18;1.38;;;2.60;99.90;;;;;;5054308;28;20401;-71
2023/03/27 04:29:00;;;;;;;5.68;1.33;;;2.60;99.90;;;;;;5054391;28;20464;-71
2023/03/27 04:31:25;;;;;;;7.85;1.60;;;2.60;99.90;;;;;;5054364;28;20124;-71
2023/03/27 04:33:51;;;;;;;9.07;1.63;;;2.60;99.90;;;;;;5054334;28;20060;-72
2023/03/27 04:36:17;;;;;;;7.97;1.67;;;2.60;99.90;;;;;;5054181;28;20044;-71
2023/03/27 04:38:44;;;;;;;6.38;1.33;;;2.60;99.90;;;;;;5054218;28;20067;-71
2023/03/27 04:41:10;;;;;;;7.38;1.50;;;2.60;99.90;;;;;;5054154;28;20473;-71
2023/03/27 04:43:35;;;;;;;9.48;1.30;;;2.70;99.90;;;;;;5054119;28;20073;-71
2023/03/27 04:46:08;;;;;;;9.30;1.60;;;2.70;99.90;;;;;;5053928;28;20051;-71
2023/03/27 04:48:36;;;;;;;10.40;1.48;;;2.70;99.90;;;;;;5054109;28;20464;-71
2023/03/27 04:51:03;;;;;;;10.35;1.58;;;2.70;99.90;;;;;;5037505;28;20045;-72
2023/03/27 04:53:30;;;;;;;8.70;1.48;;;2.70;99.90;;;;;;5053530;28;20048;-72
2023/03/27 04:55:56;;;;;;;5.70;1.40;;;2.70;99.90;;;;;;5053968;28;20049;-71
2023/03/27 04:58:25;;;;;;;9.63;1.55;;;2.70;99.90;;;;;;5054161;28;20615;-71
2023/03/27 05:00:54;;;;;;;7.05;1.88;;;2.70;99.90;;;;;;5053812;28;20079;-71
2023/03/27 05:03:20;;;;;;;9.68;1.27;;;2.70;99.90;;;;;;5053784;28;20076;-72
2023/03/27 05:05:48;;;;;;;7.43;1.20;;;2.70;99.90;;;;;;5053657;28;20572;-71
2023/03/27 05:08:14;;;;;;;7.78;1.38;;;2.70;99.90;;;;;;5037039;28;20448;-72
2023/03/27 05:10:40;;;;;;;6.68;1.48;;;2.70;99.90;;;;;;5053624;28;20067;-72
2023/03/27 05:13:07;;;;;;;8.38;1.40;;;2.70;99.90;;;;;;5053563;28;20033;-71
2023/03/27 05:15:32;;;;;;;9.77;1.58;;;2.70;99.90;;;;;;5053425;28;20386;-71
2023/03/27 05:17:59;;;;;;;5.80;1.27;;;2.70;99.90;;;;;;5053489;28;20033;-72
2023/03/27 05:20:26;;;;;;;6.85;1.48;;;2.70;99.90;;;;;;5053429;28;20571;-72
2023/03/27 05:22:53;;;;;;;8.95;1.40;;;2.70;99.90;;;;;;5036799;28;20036;-71
2023/03/27 05:25:19;;;;;;;8.25;1.27;;;2.60;99.90;;;;;;5053539;28;20461;-71
2023/03/27 05:27:49;;;;;;;8.43;1.60;;;2.60;99.90;;;;;;5053197;28;20049;-72
2023/03/27 05:30:17;;;;;;;11.38;1.65;;;2.60;99.90;;;;;;5053500;28;20379;-72
2023/03/27 05:32:47;;;;;;;9.13;2.13;;;2.60;99.90;;;;;;5053180;28;20037;-71
2023/03/27 05:35:13;;;;;;;9.25;1.70;;;2.60;99.90;;;;;;5053049;28;20115;-72
2023/03/27 05:37:39;;;;;;;9.60;1.80;;;2.60;99.90;;;;;;5053077;28;20106;-72
2023/03/27 05:40:05;;;;;;;19.92;2.35;;;2.60;99.90;;;;;;5053078;28;20048;-71
2023/03/27 05:42:31;;;;;;;6.72;1.83;;;2.60;99.90;;;;;;5053305;28;20151;-72
2023/03/27 05:44:56;;;;;;;8.60;1.65;;;2.70;99.90;;;;;;5069808;28;20541;-71
2023/03/27 05:47:22;;;;;;;11.88;1.50;;;2.70;99.90;;;;;;5052857;28;20540;-71
2023/03/27 05:49:48;;;;;;;12.23;2.20;;;2.70;99.90;;;;;;5053118;28;20029;-72
2023/03/27 05:52:14;;;;;;;10.48;1.80;;;2.70;99.90;;;;;;5052783;28;20382;-71
2023/03/27 05:54:40;;;;;;;9.50;1.80;;;2.80;99.90;;;;;;5052609;28;20517;-71
2023/03/27 05:57:06;;;;;;;13.52;2.30;;;2.80;99.90;;;;;;5052582;28;20037;-71
2023/03/27 05:59:32;;;;;;;12.38;2.08;;;2.80;99.90;;;;;;5052898;28;20048;-72
2023/03/27 06:01:57;;;;;;;9.63;1.60;;;2.90;99.90;;;;;;5052652;28;20033;-72
2023/03/27 06:04:23;;;;;;;10.73;1.67;;;2.90;99.90;;;;;;5051825;28;20045;-71
2023/03/27 06:06:49;;;;;;;11.05;2.35;;;3.00;99.90;;;;;;5052471;28;20051;-72
2023/03/27 06:09:14;;;;;;;10.73;2.53;;;3.00;99.90;;;;;;5069423;28;20371;-72
2023/03/27 06:11:41;;;;;;;10.60;1.80;;;3.10;99.90;;;;;;5052701;28;20503;-72
2023/03/27 06:14:07;;;;;;;8.55;1.67;;;3.10;99.90;;;;;;5052415;28;20044;-72
2023/03/27 06:16:33;;;;;;;7.57;1.20;;;3.10;99.90;;;;;;5052297;28;20047;-72
2023/03/27 06:18:58;;;;;;;7.85;1.00;;;3.10;99.90;;;;;;5052599;28;20041;-72
2023/03/27 06:21:24;;;;;;;5.07;0.90;;;3.10;99.90;;;;;;5053605;28;20433;-72
2023/03/27 06:23:50;;;;;;;3.70;0.80;;;3.10;99.90;;;;;;5052201;28;20048;-72
2023/03/27 06:26:15;;;;;;;7.18;0.90;;;3.10;99.90;;;;;;5052120;28;20076;-72
2023/03/27 06:28:42;;;;;;;6.32;1.13;;;3.10;99.90;;;;;;5052173;28;20043;-72
2023/03/27 06:31:08;;;;;;;7.32;1.20;;;3.10;99.90;;;;;;5052163;28;20041;-72
2023/03/27 06:33:33;;;;;;;8.00;1.10;;;3.10;99.90;;;;;;5052102;28;20037;-71
2023/03/27 06:35:59;;;;;;;4.70;0.95;;;3.10;99.90;;;;;;5052297;28;20044;-71
2023/03/27 06:38:28;;;;;;;5.57;0.80;;;3.20;99.90;;;;;;5052059;28;20037;-72
2023/03/27 06:40:54;;;;;;;10.13;1.05;;;3.20;99.90;;;;;;5052278;28;20080;-71
2023/03/27 06:43:21;;;;;;;5.88;0.90;;;3.20;99.90;;;;;;5052205;28;20045;-72
2023/03/27 06:45:48;;;;;;;5.60;1.10;;;3.20;99.90;;;;;;5052122;28;20059;-71
2023/03/27 06:48:15;;;;;;;8.30;1.10;;;3.30;99.90;;;;;;5051841;28;20041;-72
2023/03/27 06:50:42;;;;;;;7.63;1.58;;;3.30;99.90;;;;;;5052147;28;20040;-72
2023/03/27 06:53:10;;;;;;;5.78;1.15;;;3.30;99.90;;;;;;5051848;28;20041;-72
2023/03/27 06:55:36;;;;;;;5.07;1.02;;;3.30;99.90;;;;;;5051643;28;20044;-72
2023/03/27 06:58:03;;;;;;;2.88;0.70;;;3.30;99.90;;;;;;5051814;28;20037;-73
2023/03/27 07:00:33;;;;;;;8.05;1.08;;;3.30;99.90;;;;;;5052041;28;20402;-72
2023/03/27 07:03:05;;;;;;;4.40;0.77;;;3.40;99.90;;;;;;5052042;28;20182;-72
2023/03/27 07:05:35;;;;;;;9.68;1.25;;;3.40;99.90;;;;;;5051677;28;20052;-72
2023/03/27 07:08:01;;;;;;;8.75;1.60;;;3.40;99.90;;;;;;5051643;28;20413;-72
2023/03/27 07:10:27;;;;;;;5.65;0.73;;;3.40;99.90;;;;;;5051657;28;20049;-71
2023/03/27 07:12:53;;;;;;;11.55;1.33;;;3.40;99.90;;;;;;5051689;28;20040;-72
2023/03/27 07:15:20;;;;;;;6.25;1.10;;;3.50;99.90;;;;;;5069814;28;20052;-71
2023/03/27 07:17:59;;;;;;;6.28;1.08;;;3.50;99.90;;;;;;5055740;28;20051;-72
2023/03/27 07:20:28;;;;;;;6.53;0.93;;;3.60;99.90;;;;;;5055721;28;20048;-72
2023/03/27 07:22:56;;;;;;;6.85;1.33;;;3.60;99.90;;;;;;5055904;28;20120;-72
2023/03/27 07:25:25;;;;;;;10.27;1.35;;;3.70;99.90;;;;;;5038906;28;20045;-72
2023/03/27 07:27:56;;;;;;;11.15;1.70;;;3.80;99.90;;;;;;5055472;28;20132;-72
2023/03/27 07:30:21;;;;;;;8.00;1.30;;;3.80;99.90;;;;;;5055782;28;20401;-72
2023/03/27 07:32:47;;;;;;;9.30;1.42;;;3.90;99.90;;;;;;5055509;28;20029;-71
2023/03/27 07:35:13;;;;;;;10.25;2.10;;;3.90;99.90;;;;;;5055967;28;20037;-71
2023/03/27 07:37:39;;;;;;;10.80;1.90;;;4.00;99.90;;;;;;5055396;28;20053;-72
2023/03/27 07:40:06;;;;;;;9.77;1.67;;;4.10;99.90;;;;;;5055381;28;20099;-72
2023/03/27 07:42:33;;;;;;;7.70;1.58;;;4.20;99.90;;;;;;5055313;28;20102;-72
2023/03/27 07:44:59;;;;;;;8.18;2.03;;;4.30;99.90;;;;;;5055464;28;20080;-71
2023/03/27 07:47:25;;;;;;;8.95;2.00;;;4.30;99.90;;;;;;5038968;28;20049;-72
2023/03/27 07:49:51;;;;;;;10.70;1.60;;;4.40;99.90;;;;;;5055323;28;20542;-72
2023/03/27 07:52:17;;;;;;;7.68;1.38;;;4.50;99.90;;;;;;5038817;28;20032;-72
2023/03/27 07:54:43;;;;;;;9.02;1.48;;;4.50;99.90;;;;;;5054891;28;20112;-71
2023/03/27 07:57:10;;;;;;;9.38;1.77;;;4.60;99.90;;;;;;5055008;28;20068;-72
2023/03/27 07:59:35;;;;;;;10.48;1.65;;;4.70;99.90;;;;;;5054977;28;20044;-72
2023/03/27 08:02:01;;;;;;;8.88;1.48;;;4.90;99.90;;;;;;5054919;28;20128;-72
2023/03/27 08:04:27;;;;;;;8.52;1.27;;;5.10;99.90;;;;;;5055080;28;20037;-71
2023/03/27 08:06:53;;;;;;;5.03;1.00;;;5.20;99.90;;;;;;5054784;28;20413;-72
2023/03/27 08:09:20;;;;;;;4.15;1.00;;;5.10;99.90;;;;;;5054949;28;20045;-72
2023/03/27 08:11:45;;;;;;;5.72;0.90;;;5.00;99.90;;;;;;5054780;28;20041;-72
2023/03/27 08:14:12;;;;;;;4.13;0.85;;;4.70;99.90;;;;;;5054947;28;20039;-72
2023/03/27 08:16:37;;;;;;;6.78;1.50;;;4.40;99.90;;;;;;5054901;28;20052;-72
2023/03/27 08:19:05;;;;;;;5.30;1.73;;;4.30;99.90;;;;;;5037942;28;20145;-72
2023/03/27 08:21:32;;;;;;;6.47;1.10;;;4.10;99.90;;;;;;5054539;28;20049;-72
2023/03/27 08:23:59;;;;;;;5.38;0.70;;;4.00;99.90;;;;;;5054814;28;20037;-71
2023/03/27 08:26:28;;;;;;;6.50;0.80;;;3.90;99.90;;;;;;5054858;28;20045;-71
2023/03/27 08:28:54;;;;;;;6.20;0.80;;;3.80;99.90;;;;;;5054426;28;20051;-72
2023/03/27 08:31:20;;;;;;;3.90;0.80;;;3.80;99.90;;;;;;5054407;28;20045;-72
2023/03/27 08:33:46;;;;;;;9.50;1.63;;;3.90;99.90;;;;;;5054309;28;20044;-72
2023/03/27 08:36:13;;;;;;;8.40;1.10;;;4.10;99.90;;;;;;5054325;28;20041;-72
2023/03/27 08:38:40;;;;;;;6.50;1.15;;;4.40;99.90;;;;;;5054289;28;20032;-72
2023/03/27 08:41:06;;;;;;;7.20;1.10;;;4.70;99.90;;;;;;5054169;28;20476;-72
2023/03/27 08:43:42;;;;;;;8.73;1.50;;;5.00;99.90;;;;;;5054174;28;20045;-72
2023/03/27 08:46:22;;;;;;;7.55;1.20;;;5.40;99.90;;;;;;5054257;28;20512;-71
2023/03/27 08:49:04;;;;;;;4.97;0.98;;;5.60;99.90;;;;;;5054347;28;20579;-72
2023/03/27 08:51:34;;;;;;;8.30;1.48;;;5.80;99.90;;;;;;5054176;28;20037;-72
2023/03/27 08:54:23;;;;;;;6.50;1.17;;;6.10;99.90;;;;;;5054179;28;20124;-72
2023/03/27 08:56:49;;;;;;;7.63;1.38;;;6.30;99.90;;;;;;5054341;28;20048;-72
2023/03/27 08:59:20;;;;;;;7.20;1.20;;;6.60;99.90;;;;;;5053959;28;20033;-72
2023/03/27 09:02:18;;;;;;;7.53;1.63;;;6.90;99.90;;;;;;5053865;28;20052;-72
2023/03/27 09:04:58;;;;;;;6.78;1.30;;;7.30;99.90;;;;;;5016395;28;20050;-72
2023/03/27 09:07:42;;;;;;;9.68;1.45;;;7.50;99.90;;;;;;5000207;28;20049;-72
2023/03/27 09:10:14;;;;;;;;;;;7.80;99.90;;;;;;5016859;28;20091;-72
2023/03/27 09:13:10;;;;;;;8.45;1.20;;;8.10;99.90;;;;;;5016356;28;19924;-72
2023/03/27 09:15:47;;;;;;;2.88;0.68;;;8.30;99.90;;;;;;5032996;28;20046;-71
2023/03/27 09:18:26;;;;;;;4.82;0.95;;;7.70;99.90;;;;;;5016252;28;20049;-72
2023/03/27 09:20:55;;;;;;;3.60;0.77;;;7.10;99.90;;;;;;5016216;28;20049;-72
2023/03/27 09:23:32;;;;;;;4.05;0.73;;;6.80;99.90;;;;;;5033258;28;20068;-72
2023/03/27 09:26:07;;;;;;;2.17;0.70;;;6.80;99.90;;;;;;5015952;28;20498;-72
2023/03/27 09:28:54;;;;;;;3.60;0.80;;;7.30;99.90;;;;;;5032721;28;20141;-72
2023/03/27 09:31:29;;;;;;;2.95;0.52;;;7.80;99.90;;;;;;5016044;28;20049;-73
2023/03/27 09:33:58;;;;;;;4.13;0.60;;;8.20;99.90;;;;;;4999662;28;20049;-72
2023/03/27 09:36:24;;;;;;;1.95;0.57;;;8.60;99.90;;;;;;5016067;28;20080;-72
2023/03/27 09:38:57;;;;;;;5.53;0.70;;;8.60;99.90;;;;;;5014756;28;20514;-72
2023/03/27 09:41:30;;;;;;;5.32;0.70;;;8.90;99.90;;;;;;5037076;28;20607;-72
2023/03/27 09:44:19;;;;;;;3.55;0.80;;;9.20;99.90;;;;;;5053352;28;20123;-72
2023/03/27 09:46:48;;;;;;;5.60;0.90;;;9.30;99.90;;;;;;5052917;28;20045;-72
2023/03/27 09:49:17;;;;;;;5.10;0.70;;;9.60;99.90;;;;;;5052932;28;20048;-72
2023/03/27 09:51:46;;;;;;;7.47;0.98;;;9.70;99.20;;;;;;5053203;28;20037;-72
2023/03/27 09:54:17;;;;;;;4.30;0.88;;;9.90;98.80;;;;;;5052819;28;20044;-72
2023/03/27 09:56:48;;;;;;;5.13;1.00;;;10.10;97.90;;;;;;5052758;28;20076;-72
2023/03/27 09:59:23;;;;;;;6.80;0.90;;;10.20;97.60;;;;;;5053049;28;20049;-72
2023/03/27 10:01:54;;;;;;;5.53;0.90;;;10.20;97.20;;;;;;5052621;28;20055;-72
2023/03/27 10:04:22;;;;;;;5.78;1.20;;;10.30;97.10;;;;;;5052857;28;20095;-72
2023/03/27 10:07:01;;;;;;;11.05;1.33;;;10.60;96.30;;;;;;5052537;28;20128;-72
2023/03/27 10:09:33;;;;;;;7.57;1.13;;;10.50;95.80;;;;;;5052886;28;20037;-72
2023/03/27 10:12:23;;;;;;;6.32;0.95;;;10.20;95.90;;;;;;5052692;28;20087;-73
2023/03/27 10:14:51;;;;;;;5.82;1.10;;;9.70;95.40;;;;;;5052546;28;20402;-72
2023/03/27 10:17:31;;;;;;;6.82;1.10;;;9.90;95.30;;;;;;5052417;28;20087;-73
2023/03/27 10:20:18;;;;;;;9.32;1.60;;;10.10;95.20;;;;;;5052413;28;20390;-73
2023/03/27 10:23:07;;;;;;;7.75;1.23;;;9.80;93.20;;;;;;5052908;28;20041;-72
2023/03/27 10:25:38;;;;;;;7.28;1.20;;;9.70;93.90;;;;;;5052232;28;20048;-72
2023/03/27 10:28:27;;;;;;;5.25;1.05;;;9.50;94.20;;;;;;5052167;28;20520;-72
2023/03/27 10:31:08;;;;;;;8.18;0.98;;;9.10;93.20;;;;;;5052173;28;20044;-72
2023/03/27 10:33:37;;;;;;;4.95;1.10;;;8.90;93.50;;;;;;5052212;28;20494;-72
2023/03/27 10:36:05;;;;;;;4.50;1.17;;;9.20;94.20;;;;;;5052003;28;20037;-72
2023/03/27 10:38:33;;;;;;;7.13;1.38;;;9.60;93.60;;;;;;5052331;28;20032;-72
2023/03/27 10:41:02;;;;;;;5.57;1.17;;;10.00;93.50;;;;;;5052390;28;20119;-72
2023/03/27 10:43:36;;;;;;;8.18;1.00;;;10.00;92.80;;;;;;5052008;28;20036;-72
2023/03/27 10:46:07;;;;;;;6.55;1.10;;;10.00;91.60;;;;;;5052119;28;20182;-72
2023/03/27 10:48:54;;;;;;;5.05;1.10;;;9.90;91.20;;;;;;5051949;28;20041;-72
2023/03/27 10:51:19;;;;;;;5.95;1.10;;;10.00;91.00;;;;;;5051764;28;20041;-73
2023/03/27 10:53:53;;;;;;;5.57;1.00;;;9.80;91.10;;;;;;5051858;28;20036;-73
2023/03/27 10:56:25;;;;;;;8.65;1.13;;;9.60;90.80;;;;;;5035373;28;20037;-72
2023/03/27 10:58:56;;;;;;;5.53;1.10;;;9.90;91.20;;;;;;5051862;28;20033;-72
2023/03/27 11:01:30;;;;;;;5.15;0.90;;;10.10;90.50;;;;;;5035249;28;20033;-72
2023/03/27 11:04:15;;;;;;;4.45;1.10;;;10.60;90.00;;;;;;5051783;28;20432;-72
2023/03/27 11:06:43;;;;;;;8.02;0.75;;;11.00;89.80;;;;;;5051687;28;20043;-72
2023/03/27 11:09:16;;;;;;;4.82;0.80;;;11.20;88.80;;;;;;5051940;28;20029;-72
2023/03/27 11:11:54;;;;;;;5.47;1.10;;;11.50;87.80;;;;;;5051955;28;20052;-72
2023/03/27 11:14:43;;;;;;;7.70;0.90;;;11.70;84.50;;;;;;5051877;28;20037;-71
2023/03/27 11:17:14;;;;;;;4.68;1.05;;;11.90;80.40;;;;;;5032355;28;20052;-72
2023/03/27 11:19:48;;;;;;;8.45;1.02;;;12.00;80.90;;;;;;5035075;28;20529;-72
2023/03/27 11:22:31;;;;;;;4.63;0.80;;;12.10;78.90;;;;;;5051918;28;20048;-72
2023/03/27 11:25:06;;;;;;;6.60;1.13;;;12.30;76.40;;;;;;5051839;28;20041;-72
2023/03/27 11:27:55;;;;;;;6.82;0.85;;;12.30;78.50;;;;;;5051502;28;20041;-72
2023/03/27 11:30:32;;;;;;;7.95;1.48;;;12.20;78.10;;;;;;5031315;28;20571;-72
2023/03/27 11:33:12;;;;;;;2.97;0.57;;;11.80;78.10;;;;;;5051553;28;20033;-73
2023/03/27 11:35:47;;;;;;;6.50;1.02;;;11.10;79.30;;;;;;5051401;28;20037;-72
2023/03/27 11:38:30;;;;;;;3.60;0.50;;;10.30;82.10;;;;;;5051484;28;20048;-72
2023/03/27 11:40:56;;;;;;;4.07;0.75;;;9.50;85.10;;;;;;5051502;28;20091;-72
2023/03/27 11:43:22;;;;;;;3.85;0.63;;;8.60;87.10;;;;;;5051429;28;20044;-72
2023/03/27 11:46:09;;;;;;;4.30;0.60;;;8.30;88.70;;;;;;5051258;28;20071;-73
2023/03/27 11:48:37;;;;;;;3.97;0.77;;;8.40;89.80;;;;;;5051393;28;20120;-72
2023/03/27 11:51:16;;;;;;;2.50;0.80;;;8.90;90.40;;;;;;5051320;28;20033;-72
2023/03/27 11:53:57;;;;;;;5.40;0.70;;;9.50;90.70;;;;;;5051311;28;20040;-72
2023/03/27 11:56:50;;;;;;;3.75;0.73;;;10.00;89.90;;;;;;5051042;28;20087;-72
2023/03/27 11:59:25;;;;;;;6.47;0.88;;;10.40;87.60;;;;;;5050879;28;20525;-72
2023/03/27 12:02:28;;;;;;;6.43;1.02;;;10.80;86.80;;;;;;5051934;28;20041;-72
2023/03/27 12:04:57;;;;;;;8.13;1.05;;;11.20;86.70;;;;;;5055330;28;20397;-72
2023/03/27 12:07:41;;;;;;;7.20;1.08;;;11.50;87.10;;;;;;5054793;28;20045;-72
2023/03/27 12:10:25;;;;;;;5.53;0.75;;;11.60;85.20;;;;;;5054942;28;20037;-72
2023/03/27 12:13:20;;;;;;;6.22;1.13;;;11.30;83.20;;;;;;5055080;28;20052;-72
2023/03/27 12:15:56;;;;;;;6.65;1.20;;;11.00;86.40;;;;;;5054935;28;20041;-72
2023/03/27 12:18:44;;;;;;;6.88;0.88;;;10.50;87.80;;;;;;5038339;28;20048;-73
2023/03/27 12:21:20;;;;;;;6.97;0.90;;;10.00;88.30;;;;;;5054700;28;20136;-73
2023/03/27 12:23:57;;;;;;;6.07;1.02;;;9.30;90.00;;;;;;5054604;28;20041;-72
2023/03/27 12:26:39;;;;;;;7.78;1.20;;;8.80;89.10;;;;;;5054419;28;20132;-73
2023/03/27 12:29:36;;;;;;;6.75;0.93;;;8.60;90.60;;;;;;5054827;28;20103;-72
2023/03/27 12:32:24;;;;;;;5.18;1.10;;;9.10;91.30;;;;;;5054435;28;20044;-72
2023/03/27 12:34:57;;;;;;;8.45;1.17;;;9.70;91.50;;;;;;5037758;28;20090;-72
2023/03/27 12:37:29;;;;;;;9.27;1.42;;;9.90;91.20;;;;;;5054306;28;20044;-72
2023/03/27 12:39:58;;;;;;;5.75;0.88;;;9.70;90.20;;;;;;5054317;28;20502;-72
2023/03/27 12:42:47;;;;;;;6.18;1.13;;;9.50;89.80;;;;;;5054472;28;20045;-72
2023/03/27 12:45:18;;;;;;;9.07;1.00;;;9.30;89.10;;;;;;5054365;28;20489;-72
2023/03/27 12:48:06;;;;;;;7.53;1.15;;;9.40;90.50;;;;;;5054048;28;20044;-72
2023/03/27 12:50:54;;;;;;;7.45;1.10;;;9.90;85.90;;;;;;5054049;28;20041;-72
2023/03/27 12:53:25;;;;;;;6.18;1.02;;;10.40;84.70;;;;;;5070921;28;20041;-71
2023/03/27 12:56:12;;;;;;;5.35;0.80;;;10.80;85.50;;;;;;5054035;28;20123;-72
2023/03/27 12:58:39;;;;;;;6.82;1.10;;;10.90;82.00;;;;;;5053883;28;20037;-72
2023/03/27 13:01:08;;;;;;;4.07;0.90;;;11.00;81.60;;;;;;5053858;28;20037;-72
2023/03/27 13:04:11;;;;;;;6.85;1.35;;;11.00;80.10;;;;;;5053794;28;20041;-72
2023/03/27 13:07:10;;;;;;;3.70;0.82;;;10.80;76.10;;;;;;5053659;28;20052;-72
2023/03/27 13:10:07;;;;;;;7.07;1.50;;;11.00;78.20;;;;;;5053966;28;20045;-72
2023/03/27 13:13:11;;;;;;;4.75;1.33;;;11.20;78.20;;;;;;5052682;28;20106;-72
2023/03/27 13:15:59;;;;;;;8.27;1.20;;;11.20;75.60;;;;;;5053782;28;20482;-72
2023/03/27 13:18:37;;;;;;;7.13;1.30;;;10.90;76.50;;;;;;5053557;28;20045;-72